createdAt,value
2018-05-06T00:00:34.463Z,64.28
2018-05-06T00:03:02.931Z,64.44
2018-05-06T00:05:31.336Z,64.67
2018-05-06T00:07:59.724Z,64.97
2018-05-06T00:10:28.204Z,65.16
2018-05-06T00:12:56.786Z,65.09
2018-05-06T00:15:25.262Z,65.47
2018-05-06T00:17:55.127Z,65.35
2018-05-06T00:20:23.644Z,65.47
2018-05-06T00:22:52.104Z,65.97
2018-05-06T00:25:20.531Z,65.99
2018-05-06T00:27:50.911Z,65.84
2018-05-06T00:30:19.363Z,65.92
2018-05-06T00:32:47.959Z,65.89
2018-05-06T00:35:16.402Z,66.07
2018-05-06T00:37:44.848Z,66.27
2018-05-06T00:40:13.251Z,66.21
2018-05-06T00:42:41.688Z,66.54
2018-05-06T00:45:10.122Z,66.62
2018-05-06T00:47:38.547Z,66.67
2018-05-06T00:50:06.952Z,66.83
2018-05-06T00:52:35.367Z,66.75
2018-05-06T00:55:03.715Z,67.06
2018-05-06T00:57:32.193Z,67.37
2018-05-06T01:00:00.631Z,67.44
2018-05-06T01:02:30.356Z,67.08
2018-05-06T01:04:58.775Z,66.99
2018-05-06T01:07:28.470Z,67.26
2018-05-06T01:09:57.973Z,67.19
2018-05-06T01:12:26.322Z,67.40
2018-05-06T01:14:54.834Z,67.15
2018-05-06T01:17:23.236Z,67.41
2018-05-06T01:19:53.123Z,67.39
2018-05-06T01:22:21.548Z,67.54
2018-05-06T01:24:49.963Z,67.66
2018-05-06T01:27:18.376Z,67.68
2018-05-06T01:29:46.808Z,67.85
2018-05-06T01:32:15.336Z,67.58
2018-05-06T01:34:43.697Z,68.05
2018-05-06T01:37:12.118Z,67.56
2018-05-06T01:39:40.520Z,67.32
2018-05-06T01:42:08.982Z,67.69
2018-05-06T01:44:39.339Z,67.81
2018-05-06T01:47:07.787Z,67.86
2018-05-06T01:49:36.279Z,67.64
2018-05-06T01:52:04.638Z,67.74
2018-05-06T01:54:34.767Z,67.71
2018-05-06T01:57:03.230Z,68.01
2018-05-06T01:59:31.659Z,67.99
2018-05-06T02:02:00.163Z,68.08
2018-05-06T02:04:28.576Z,68.01
2018-05-06T02:06:56.998Z,68.20
2018-05-06T02:09:25.408Z,68.62
2018-05-06T02:11:53.808Z,68.97
2018-05-06T02:14:23.783Z,68.62
2018-05-06T02:16:52.195Z,69.35
2018-05-06T02:19:21.783Z,69.04
2018-05-06T02:21:50.222Z,69.03
2018-05-06T02:24:20.035Z,69.11
2018-05-06T02:26:50.262Z,69.23
2018-05-06T02:29:18.719Z,69.11
2018-05-06T02:31:47.183Z,68.93
2018-05-06T02:34:15.902Z,68.93
2018-05-06T02:36:44.340Z,69.01
2018-05-06T02:39:12.764Z,69.32
2018-05-06T02:41:44.675Z,69.23
2018-05-06T02:44:13.107Z,69.43
2018-05-06T02:46:41.495Z,69.49
2018-05-06T02:49:09.900Z,69.46
2018-05-06T02:51:38.263Z,69.75
2018-05-06T02:54:06.713Z,69.54
2018-05-06T02:56:35.130Z,69.93
2018-05-06T02:59:03.495Z,69.73
2018-05-06T03:01:31.912Z,69.82
2018-05-06T03:04:02.067Z,69.93
2018-05-06T03:06:31.995Z,70.05
2018-05-06T03:09:02.467Z,69.97
2018-05-06T03:11:32.418Z,70.10
2018-05-06T03:14:00.882Z,70.28
2018-05-06T03:16:29.352Z,70.02
2018-05-06T03:18:57.768Z,70.26
2018-05-06T03:21:26.167Z,70.15
2018-05-06T03:23:56.570Z,70.25
2018-05-06T03:26:25.039Z,70.38
2018-05-06T03:28:53.467Z,70.33
2018-05-06T03:31:22.195Z,70.19
2018-05-06T03:33:50.603Z,70.37
2018-05-06T03:36:20.987Z,70.49
2018-05-06T03:38:49.727Z,70.70
2018-05-06T03:41:18.093Z,70.33
2018-05-06T03:43:46.525Z,70.53
2018-05-06T03:46:14.939Z,70.47
2018-05-06T03:48:43.306Z,70.34
2018-05-06T03:51:11.714Z,70.57
2018-05-06T03:53:40.143Z,70.77
2018-05-06T04:09:30.777Z,70.82
2018-05-06T04:12:00.539Z,70.53
2018-05-06T04:14:29.067Z,70.57
2018-05-06T04:16:57.473Z,70.49
2018-05-06T04:19:26.243Z,70.49
2018-05-06T04:21:54.662Z,70.57
2018-05-06T04:24:23.012Z,70.31
2018-05-06T04:26:51.529Z,70.32
2018-05-06T04:29:19.911Z,70.42
2018-05-06T04:31:48.396Z,70.41
2018-05-06T04:34:16.908Z,70.33
2018-05-06T04:36:45.323Z,70.24
2018-05-06T04:39:13.738Z,69.81
2018-05-06T04:41:42.116Z,69.98
2018-05-06T04:44:10.618Z,69.74
2018-05-06T04:46:40.710Z,69.64
2018-05-06T04:49:09.117Z,69.62
2018-05-06T04:51:37.476Z,69.38
2018-05-06T04:54:05.894Z,69.36
2018-05-06T04:56:34.258Z,68.98
2018-05-06T04:59:02.711Z,68.60
2018-05-06T05:01:31.104Z,67.97
2018-05-06T05:03:59.493Z,68.41
2018-05-06T05:06:27.962Z,68.03
2018-05-06T05:08:56.396Z,67.39
2018-05-06T05:11:24.833Z,66.87
2018-05-06T05:13:53.309Z,66.83
2018-05-06T05:16:21.727Z,66.30
2018-05-06T05:18:50.186Z,66.39
2018-05-06T05:21:18.608Z,65.79
2018-05-06T05:23:46.991Z,65.32
2018-05-06T05:26:15.411Z,64.95
2018-05-06T05:28:43.867Z,64.44
2018-05-06T05:31:12.239Z,63.90
2018-05-06T05:33:40.676Z,62.95
2018-05-06T05:36:09.112Z,62.97
2018-05-06T05:38:37.486Z,62.72
2018-05-06T05:41:07.463Z,62.14
2018-05-06T05:43:35.925Z,61.68
2018-05-06T05:46:04.280Z,61.09
2018-05-06T05:48:32.688Z,60.49
2018-05-06T05:51:01.155Z,59.97
2018-05-06T05:53:29.566Z,59.86
2018-05-06T05:55:57.998Z,59.59
2018-05-06T05:58:26.418Z,59.24
2018-05-06T06:00:54.798Z,58.47
2018-05-06T06:03:23.217Z,58.24
2018-05-06T06:05:52.767Z,57.62
2018-05-06T06:08:21.184Z,57.24
2018-05-06T06:10:49.607Z,57.00
2018-05-06T06:13:21.643Z,57.80
2018-05-06T06:15:50.098Z,57.41
2018-05-06T06:18:19.550Z,57.17
2018-05-06T06:20:48.563Z,56.88
2018-05-06T06:23:16.963Z,56.16
2018-05-06T06:25:44.375Z,55.30
2018-05-06T06:28:14.788Z,54.31
2018-05-06T06:30:43.179Z,54.03
2018-05-06T06:33:10.517Z,53.15
2018-05-06T06:35:41.671Z,52.90
2018-05-06T06:38:11.155Z,52.80
2018-05-06T06:40:39.574Z,52.34
2018-05-06T06:43:08.321Z,51.37
2018-05-06T06:45:36.719Z,50.60
2018-05-06T06:48:04.101Z,50.42
2018-05-06T06:50:33.991Z,49.55
2018-05-06T06:53:02.406Z,49.40
2018-05-06T06:55:30.594Z,48.94
2018-05-06T06:57:58.912Z,48.00
2018-05-06T07:00:27.385Z,46.59
2018-05-06T07:02:54.734Z,45.84
2018-05-06T07:05:23.224Z,45.86
2018-05-06T07:07:51.675Z,44.81
2018-05-06T07:10:19.032Z,43.49
2018-05-06T07:12:48.229Z,42.91
2018-05-06T07:15:15.613Z,42.11
2018-05-06T07:17:45.057Z,41.55
2018-05-06T07:20:12.395Z,40.76
2018-05-06T07:22:41.960Z,39.59
2018-05-06T07:25:10.344Z,38.71
2018-05-06T07:27:37.690Z,38.66
2018-05-06T07:30:06.409Z,38.20
2018-05-06T07:32:34.731Z,37.65
2018-05-06T07:35:02.830Z,36.82
2018-05-06T07:37:31.047Z,36.34
2018-05-06T07:39:59.378Z,35.74
2018-05-06T07:42:26.750Z,35.12
2018-05-06T07:44:55.081Z,35.21
2018-05-06T07:47:22.396Z,33.58
2018-05-06T07:49:50.822Z,33.97
2018-05-06T07:52:19.204Z,33.05
2018-05-06T07:54:47.422Z,33.74
2018-05-06T07:57:14.759Z,33.24
2018-05-06T07:59:43.143Z,33.42
2018-05-06T08:02:11.423Z,33.06
2018-05-06T08:04:39.830Z,33.29
2018-05-06T08:07:07.136Z,32.79
2018-05-06T08:09:35.405Z,33.52
2018-05-06T08:12:03.615Z,33.00
2018-05-06T08:14:32.040Z,32.37
2018-05-06T08:16:59.324Z,32.07
2018-05-06T08:19:27.503Z,31.29
2018-05-06T08:21:55.826Z,29.85
2018-05-06T08:24:24.016Z,28.79
2018-05-06T08:26:52.422Z,28.84
2018-05-06T08:29:20.542Z,29.16
2018-05-06T08:31:48.691Z,28.70
2018-05-06T08:34:16.815Z,29.21
2018-05-06T08:36:45.108Z,28.19
2018-05-06T08:39:13.281Z,27.04
2018-05-06T08:41:42.623Z,28.33
2018-05-06T08:44:10.874Z,27.48
2018-05-06T08:46:39.152Z,27.80
2018-05-06T08:49:07.339Z,28.24
2018-05-06T08:51:35.572Z,26.87
2018-05-06T08:54:04.300Z,29.16
2018-05-06T08:56:32.987Z,29.82
2018-05-06T08:59:01.247Z,29.39
2018-05-06T09:01:29.445Z,28.30
2018-05-06T09:03:57.692Z,27.41
2018-05-06T09:06:25.844Z,26.48
2018-05-06T09:08:54.007Z,26.76
2018-05-06T09:11:22.246Z,26.59
2018-05-06T09:13:50.689Z,26.27
2018-05-06T09:16:17.993Z,26.98
2018-05-06T09:18:46.665Z,26.81
2018-05-06T09:21:15.083Z,26.83
2018-05-06T09:23:43.305Z,26.87
2018-05-06T09:26:11.883Z,26.00
2018-05-06T09:28:40.120Z,26.16
2018-05-06T09:31:08.430Z,26.40
2018-05-06T09:33:36.659Z,25.76
2018-05-06T09:36:04.935Z,25.58
2018-05-06T09:38:33.191Z,25.68
2018-05-06T09:41:01.406Z,26.16
2018-05-06T09:43:30.290Z,26.36
2018-05-06T09:45:58.441Z,26.41
2018-05-06T09:48:26.729Z,25.03
2018-05-06T09:50:54.980Z,25.13
2018-05-06T09:53:23.183Z,25.84
2018-05-06T09:55:51.326Z,25.18
2018-05-06T09:58:19.526Z,25.97
2018-05-06T10:00:47.757Z,24.99
2018-05-06T10:03:16.180Z,24.74
2018-05-06T10:05:44.290Z,24.22
2018-05-06T10:08:12.781Z,24.67
2018-05-06T10:10:41.125Z,23.95
2018-05-06T10:13:09.370Z,24.24
2018-05-06T10:15:37.804Z,25.45
2018-05-06T10:18:06.150Z,23.99
2018-05-06T10:20:34.428Z,25.53
2018-05-06T10:23:02.679Z,25.09
2018-05-06T10:25:30.928Z,24.84
2018-05-06T10:27:59.224Z,25.21
2018-05-06T10:30:27.403Z,25.10
2018-05-06T10:32:55.633Z,24.42
2018-05-06T10:35:25.013Z,24.48
2018-05-06T10:37:53.434Z,25.27
2018-05-06T10:40:21.853Z,26.30
2018-05-06T10:42:51.317Z,25.93
2018-05-06T10:45:19.728Z,26.30
2018-05-06T10:47:48.167Z,26.15
2018-05-06T10:50:16.580Z,26.97
2018-05-06T10:52:45.089Z,28.18
2018-05-06T10:55:13.403Z,27.08
2018-05-06T10:57:41.624Z,26.84
2018-05-06T11:00:10.095Z,27.53
2018-05-06T11:02:38.511Z,28.47
2018-05-06T11:05:06.804Z,28.03
2018-05-06T11:07:35.186Z,28.27
2018-05-06T11:10:04.027Z,28.29
2018-05-06T11:12:32.241Z,28.08
2018-05-06T11:15:00.563Z,28.96
2018-05-06T11:17:28.875Z,28.76
2018-05-06T11:19:57.323Z,28.79
2018-05-06T11:22:26.793Z,29.61
2018-05-06T11:24:56.119Z,29.79
2018-05-06T11:27:24.535Z,30.87
2018-05-06T11:29:52.971Z,31.20
2018-05-06T11:32:21.461Z,31.78
2018-05-06T11:34:50.879Z,31.24
2018-05-06T11:37:19.354Z,31.77
2018-05-06T11:39:47.767Z,33.28
2018-05-06T11:42:16.236Z,33.86
2018-05-06T11:44:44.670Z,34.16
2018-05-06T11:47:13.084Z,34.68
2018-05-06T11:49:41.569Z,34.31
2018-05-06T11:52:10.044Z,34.69
2018-05-06T11:54:38.495Z,34.29
2018-05-06T11:57:06.869Z,34.62
2018-05-06T11:59:35.250Z,34.46
2018-05-06T12:02:03.768Z,33.59
2018-05-06T12:04:33.111Z,33.39
2018-05-06T12:07:01.563Z,33.74
2018-05-06T12:09:30.043Z,35.20
2018-05-06T12:11:58.488Z,35.55
2018-05-06T12:14:27.990Z,34.94
2018-05-06T12:16:56.408Z,35.01
2018-05-06T12:19:24.845Z,34.63
2018-05-06T12:21:53.394Z,34.11
2018-05-06T12:24:21.738Z,34.12
2018-05-06T12:26:50.212Z,34.96
2018-05-06T12:29:18.855Z,33.81
2018-05-06T12:31:47.350Z,33.74
2018-05-06T12:34:15.819Z,33.77
2018-05-06T12:36:44.226Z,34.07
2018-05-06T12:39:13.457Z,34.16
2018-05-06T12:41:41.923Z,33.62
2018-05-06T12:44:10.416Z,34.12
2018-05-06T12:46:38.862Z,33.62
2018-05-06T12:49:07.303Z,34.21
2018-05-06T12:51:35.711Z,34.06
2018-05-06T12:54:04.210Z,34.29
2018-05-06T12:56:32.694Z,33.73
2018-05-06T12:59:01.071Z,33.41
2018-05-06T13:01:29.500Z,32.88
2018-05-06T13:03:58.900Z,32.99
2018-05-06T13:06:27.271Z,33.12
2018-05-06T13:08:56.167Z,33.31
2018-05-06T13:11:24.636Z,33.92
2018-05-06T13:13:53.052Z,34.17
2018-05-06T13:16:22.915Z,33.00
2018-05-06T13:18:51.396Z,33.66
2018-05-06T13:21:19.871Z,34.24
2018-05-06T13:23:48.299Z,35.12
2018-05-06T13:26:16.766Z,34.60
2018-05-06T13:28:45.119Z,34.50
2018-05-06T13:31:13.643Z,34.10
2018-05-06T13:33:42.064Z,34.58
2018-05-06T13:36:11.480Z,34.21
2018-05-06T13:38:39.975Z,34.80
2018-05-06T13:41:08.396Z,34.11
2018-05-06T13:43:37.932Z,33.67
2018-05-06T13:46:06.432Z,33.43
2018-05-06T13:48:34.950Z,34.15
2018-05-06T13:51:03.415Z,34.04
2018-05-06T13:53:31.884Z,34.29
2018-05-06T13:56:00.356Z,34.53
2018-05-06T13:58:28.783Z,34.77
2018-05-06T14:00:58.309Z,34.36
2018-05-06T14:03:27.586Z,34.37
2018-05-06T14:05:56.094Z,34.15
2018-05-06T14:08:24.602Z,33.51
2018-05-06T14:10:53.074Z,33.89
2018-05-06T14:13:22.521Z,34.10
2018-05-06T14:15:51.019Z,34.12
2018-05-06T14:18:19.418Z,33.41
2018-05-06T14:20:48.843Z,33.06
2018-05-06T14:23:17.324Z,33.20
2018-05-06T14:25:46.956Z,33.12
2018-05-06T14:28:15.659Z,33.40
2018-05-06T14:30:44.062Z,33.38
2018-05-06T14:33:12.492Z,32.82
2018-05-06T14:35:41.916Z,33.13
2018-05-06T14:38:10.354Z,33.33
2018-05-06T14:40:38.704Z,33.74
2018-05-06T14:43:07.131Z,33.24
2018-05-06T14:45:36.478Z,33.34
2018-05-06T14:48:11.097Z,32.75
2018-05-06T14:50:39.550Z,32.44
2018-05-06T14:53:09.128Z,32.76
2018-05-06T14:55:37.588Z,32.90
2018-05-06T14:58:07.033Z,32.99
2018-05-06T15:00:35.512Z,33.07
2018-05-06T15:03:04.984Z,32.73
2018-05-06T15:05:33.408Z,32.24
2018-05-06T15:08:01.806Z,33.11
2018-05-06T15:10:30.343Z,32.83
2018-05-06T15:12:58.730Z,32.86
2018-05-06T15:15:27.152Z,32.30
2018-05-06T15:17:55.642Z,33.04
2018-05-06T15:20:24.076Z,33.62
2018-05-06T15:22:52.594Z,32.93
2018-05-06T15:25:21.769Z,33.17
2018-05-06T15:27:51.223Z,32.37
2018-05-06T15:30:19.716Z,32.72
2018-05-06T15:32:48.800Z,33.22
2018-05-06T15:35:17.232Z,33.47
2018-05-06T15:37:44.657Z,32.68
2018-05-06T15:40:13.083Z,32.86
2018-05-06T15:42:41.531Z,33.14
2018-05-06T15:45:09.972Z,33.77
2018-05-06T15:47:38.466Z,33.33
2018-05-06T15:50:08.152Z,33.17
2018-05-06T15:52:38.281Z,33.45
2018-05-06T15:55:06.708Z,33.27
2018-05-06T15:57:35.143Z,33.74
2018-05-06T16:00:05.136Z,33.75
2018-05-06T16:02:49.931Z,33.54
2018-05-06T16:05:19.633Z,33.54
2018-05-06T16:07:48.107Z,33.05
2018-05-06T16:10:18.096Z,33.58
2018-05-06T16:12:46.532Z,33.64
2018-05-06T16:15:15.173Z,34.27
2018-05-06T16:17:43.812Z,33.59
2018-05-06T16:20:12.404Z,33.82
2018-05-06T16:22:40.955Z,33.21
2018-05-06T16:25:09.328Z,33.39
2018-05-06T16:27:37.742Z,33.22
2018-05-06T16:30:07.597Z,33.36
2018-05-06T16:32:37.334Z,33.38
2018-05-06T16:35:05.765Z,33.36
2018-05-06T16:37:34.187Z,33.75
2018-05-06T16:40:03.664Z,33.55
2018-05-06T16:42:33.241Z,33.25
2018-05-06T16:45:01.685Z,33.49
2018-05-06T16:47:30.811Z,33.76
2018-05-06T16:50:00.591Z,33.83
2018-05-06T16:52:30.527Z,33.71
2018-05-06T16:54:58.987Z,33.88
2018-05-06T16:57:27.455Z,33.48
2018-05-06T16:59:55.862Z,33.62
2018-05-06T17:02:24.384Z,34.23
2018-05-06T17:04:53.877Z,33.92
2018-05-06T17:07:23.732Z,34.31
2018-05-06T17:09:52.219Z,34.20
2018-05-06T17:12:23.064Z,33.95
2018-05-06T17:14:51.849Z,34.13
2018-05-06T17:17:20.287Z,34.19
2018-05-06T17:19:48.737Z,34.25
2018-05-06T17:22:18.674Z,33.96
2018-05-06T17:24:47.109Z,34.27
2018-05-06T17:27:16.679Z,34.43
2018-05-06T17:29:46.189Z,34.20
2018-05-06T17:32:14.611Z,34.05
2018-05-06T17:34:43.047Z,34.08
2018-05-06T17:37:11.418Z,34.02
2018-05-06T17:39:41.419Z,34.31
2018-05-06T17:42:09.877Z,34.11
2018-05-06T17:44:40.927Z,34.18
2018-05-06T17:47:10.375Z,33.87
2018-05-06T17:49:38.826Z,33.49
2018-05-06T17:52:07.238Z,33.32
2018-05-06T17:54:37.144Z,33.58
2018-05-06T17:57:05.592Z,33.66
2018-05-06T17:59:34.038Z,34.00
2018-05-06T18:02:05.591Z,33.79
2018-05-06T18:04:34.088Z,33.88
2018-05-06T18:07:02.603Z,33.87
2018-05-06T18:09:31.088Z,33.97
2018-05-06T18:11:59.511Z,33.63
2018-05-06T18:14:28.041Z,33.72
2018-05-06T18:16:56.443Z,34.14
2018-05-06T18:19:24.925Z,33.97
2018-05-06T18:21:53.635Z,34.18
2018-05-06T18:24:23.616Z,34.14
2018-05-06T18:26:52.085Z,34.54
2018-05-06T18:29:20.537Z,34.16
2018-05-06T18:31:49.024Z,33.84
2018-05-06T18:34:17.459Z,33.61
2018-05-06T18:36:47.272Z,33.89
2018-05-06T18:39:15.667Z,33.80
2018-05-06T18:41:44.176Z,34.48
2018-05-06T18:44:12.648Z,34.31
2018-05-06T18:46:41.116Z,34.57
2018-05-06T18:49:09.503Z,34.60
2018-05-06T18:51:37.959Z,34.14
2018-05-06T18:54:06.384Z,34.48
2018-05-06T18:56:34.882Z,34.65
2018-05-06T18:59:03.368Z,35.14
2018-05-06T19:01:31.821Z,34.92
2018-05-06T19:04:00.264Z,35.05
2018-05-06T19:06:28.741Z,35.09
2018-05-06T19:08:58.609Z,35.73
2018-05-06T19:11:27.015Z,35.83
2018-05-06T19:13:55.487Z,36.15
2018-05-06T19:16:25.668Z,35.82
2018-05-06T19:18:54.098Z,35.80
2018-05-06T19:21:22.567Z,36.03
2018-05-06T19:23:51.041Z,36.07
2018-05-06T19:26:19.496Z,36.13
2018-05-06T19:28:47.867Z,36.12
2018-05-06T19:31:16.467Z,35.48
2018-05-06T19:33:44.836Z,35.91
2018-05-06T19:36:14.899Z,36.08
2018-05-06T19:38:43.323Z,35.78
2018-05-06T19:41:11.811Z,35.84
2018-05-06T19:43:40.255Z,35.34
2018-05-06T19:46:08.652Z,34.89
2018-05-06T19:48:38.919Z,35.04
2018-05-06T19:51:07.389Z,34.88
2018-05-06T19:53:35.840Z,34.61
2018-05-06T19:56:06.214Z,34.61
2018-05-06T19:58:36.376Z,35.13
2018-05-06T20:01:04.770Z,34.79
2018-05-06T20:03:33.151Z,34.57
2018-05-06T20:06:01.578Z,34.80
2018-05-06T20:08:30.011Z,34.57
2018-05-06T20:10:58.443Z,34.56
2018-05-06T20:13:26.870Z,34.55
2018-05-06T20:16:02.974Z,34.32
2018-05-06T20:18:34.805Z,34.09
2018-05-06T20:21:04.947Z,34.32
2018-05-06T20:23:33.327Z,34.31
2018-05-06T20:26:05.353Z,34.46
2018-05-06T20:28:35.268Z,34.00
2018-05-06T20:31:03.646Z,33.98
2018-05-06T20:33:32.011Z,33.59
2018-05-06T20:36:00.336Z,32.71
2018-05-06T20:38:28.862Z,33.16
2018-05-06T20:40:58.838Z,32.94
2018-05-06T20:43:27.262Z,31.88
2018-05-06T20:45:55.773Z,32.17
2018-05-06T20:48:26.356Z,32.15
2018-05-06T20:50:54.803Z,31.91
2018-05-06T20:53:25.123Z,31.81
2018-05-06T20:55:54.902Z,31.76
2018-05-06T20:58:23.315Z,32.17
2018-05-06T21:00:55.829Z,32.26
2018-05-06T21:03:24.225Z,31.30
2018-05-06T21:05:52.564Z,31.74
2018-05-06T21:08:20.916Z,31.39
2018-05-06T21:10:51.479Z,31.20
2018-05-06T21:13:19.900Z,31.56
2018-05-06T21:15:48.294Z,31.93
2018-05-06T21:18:22.798Z,32.60
2018-05-06T21:20:53.205Z,33.30
2018-05-06T21:23:25.161Z,34.16
2018-05-06T21:25:55.730Z,33.63
2018-05-06T21:28:24.087Z,32.45
2018-05-06T21:30:52.444Z,32.58
2018-05-06T21:33:20.913Z,33.09
2018-05-06T21:35:49.320Z,32.81
2018-05-06T21:38:19.768Z,32.39
2018-05-06T21:40:48.093Z,32.46
2018-05-06T21:43:16.656Z,33.08
2018-05-06T21:45:44.917Z,33.73
2018-05-06T21:48:13.284Z,33.78
2018-05-06T21:50:41.971Z,34.67
2018-05-06T21:53:13.883Z,34.90
2018-05-06T21:55:42.327Z,34.75
2018-05-06T21:58:10.703Z,34.48
2018-05-06T22:00:39.114Z,35.00
2018-05-06T22:03:11.715Z,36.18
2018-05-06T22:05:40.067Z,36.35
2018-05-06T22:08:08.463Z,37.22
2018-05-06T22:10:36.896Z,36.82
2018-05-06T22:13:05.291Z,37.64
2018-05-06T22:15:33.695Z,37.97
2018-05-06T22:18:03.881Z,36.76
2018-05-06T22:20:32.670Z,35.92
2018-05-06T22:23:03.043Z,35.78
2018-05-06T22:25:31.455Z,34.79
2018-05-06T22:27:59.848Z,34.80
2018-05-06T22:30:28.315Z,34.01
2018-05-06T22:33:00.727Z,34.65
2018-05-06T22:35:30.548Z,34.85
2018-05-06T22:38:00.424Z,34.48
2018-05-06T22:40:28.791Z,34.32
2018-05-06T22:42:57.178Z,34.21
2018-05-06T22:45:27.157Z,34.99
2018-05-06T22:47:55.532Z,34.99
2018-05-06T22:50:23.975Z,34.15
2018-05-06T22:52:52.351Z,35.42
2018-05-06T22:55:20.759Z,36.33
2018-05-06T22:57:52.744Z,36.21
2018-05-06T23:00:21.151Z,36.69
2018-05-06T23:02:49.528Z,36.07
2018-05-06T23:05:17.984Z,35.83
2018-05-06T23:07:46.367Z,36.99
2018-05-06T23:10:14.733Z,37.25
2018-05-06T23:12:43.131Z,37.99
2018-05-06T23:15:11.551Z,38.62
2018-05-06T23:17:39.907Z,38.19
2018-05-06T23:20:09.789Z,38.14
2018-05-06T23:22:38.232Z,38.69
2018-05-06T23:25:06.652Z,38.88
2018-05-06T23:27:35.051Z,38.33
2018-05-06T23:30:03.823Z,39.10
2018-05-06T23:32:32.195Z,39.07
2018-05-06T23:35:00.561Z,38.81
2018-05-06T23:37:29.011Z,38.82
2018-05-06T23:39:57.353Z,39.29
2018-05-06T23:42:25.815Z,38.96
2018-05-06T23:44:54.175Z,39.46
2018-05-06T23:47:22.647Z,39.61
2018-05-06T23:49:53.204Z,38.92
2018-05-06T23:52:21.647Z,38.80
2018-05-06T23:54:50.105Z,38.44
2018-05-06T23:57:18.522Z,38.62
2018-05-06T23:59:47.227Z,38.51
